createdAt,value
2023-04-10T00:00:41.654Z,9.61
2023-04-10T00:03:14.932Z,8.71
2023-04-10T00:05:49.718Z,9.19
2023-04-10T00:08:23.053Z,8.65
2023-04-10T00:10:57.126Z,9.57
2023-04-10T00:13:31.970Z,9.27
2023-04-10T00:16:05.563Z,8.30
2023-04-10T00:18:38.753Z,8.49
2023-04-10T00:21:13.401Z,8.31
2023-04-10T00:23:46.352Z,7.61
2023-04-10T00:26:20.941Z,7.47
2023-04-10T00:28:54.035Z,7.71
2023-04-10T00:31:27.177Z,7.56
2023-04-10T00:34:00.235Z,7.77
2023-04-10T00:36:35.129Z,7.71
2023-04-10T00:39:08.742Z,7.91
2023-04-10T00:41:42.132Z,7.65
2023-04-10T00:44:15.107Z,7.48
2023-04-10T00:46:48.106Z,7.52
2023-04-10T00:49:21.977Z,7.38
2023-04-10T00:51:58.410Z,7.06
2023-04-10T00:54:33.222Z,7.01
2023-04-10T00:57:06.290Z,7.29
2023-04-10T00:59:39.419Z,7.35
2023-04-10T01:02:13.417Z,6.96
2023-04-10T01:04:47.010Z,6.74
2023-04-10T01:07:27.989Z,6.93
2023-04-10T01:10:06.284Z,7.45
2023-04-10T01:12:47.015Z,8.26
2023-04-10T01:15:22.194Z,7.57
2023-04-10T01:17:58.420Z,7.69
2023-04-10T01:20:32.794Z,7.03
2023-04-10T01:23:25.870Z,7.14
2023-04-10T01:26:01.319Z,7.20
2023-04-10T01:28:55.351Z,6.79
2023-04-10T01:31:33.033Z,6.63
2023-04-10T01:34:08.530Z,6.82
2023-04-10T01:36:48.492Z,6.46
2023-04-10T01:39:22.249Z,6.60
2023-04-10T01:41:56.320Z,6.28
2023-04-10T01:44:31.225Z,6.83
2023-04-10T01:47:08.259Z,6.63
2023-04-10T01:49:44.663Z,6.70
2023-04-10T01:52:18.553Z,6.63
2023-04-10T01:54:52.771Z,6.51
2023-04-10T01:57:25.749Z,6.00
2023-04-10T01:59:58.748Z,6.05
2023-04-10T02:02:33.981Z,5.86
2023-04-10T02:05:07.795Z,6.09
2023-04-10T02:07:45.536Z,5.94
2023-04-10T02:10:23.585Z,5.93
2023-04-10T02:13:08.057Z,5.73
2023-04-10T02:15:43.859Z,5.88
2023-04-10T02:18:18.985Z,6.55
2023-04-10T02:20:52.746Z,6.72
2023-04-10T02:23:26.370Z,6.08
2023-04-10T02:25:59.931Z,6.43
2023-04-10T02:28:32.936Z,6.13
2023-04-10T02:31:06.004Z,6.43
2023-04-10T02:33:40.426Z,6.49
2023-04-10T02:36:14.195Z,6.30
2023-04-10T02:38:47.911Z,6.35
2023-04-10T02:41:22.306Z,6.51
2023-04-10T02:43:55.463Z,5.79
2023-04-10T02:46:28.652Z,5.44
2023-04-10T02:49:03.012Z,5.37
2023-04-10T02:51:37.239Z,5.29
2023-04-10T02:54:10.399Z,5.57
2023-04-10T02:56:43.532Z,5.31
2023-04-10T02:59:16.468Z,5.17
2023-04-10T03:01:50.710Z,5.25
2023-04-10T03:04:25.618Z,5.26
2023-04-10T03:06:59.462Z,5.03
2023-04-10T03:09:32.710Z,5.04
2023-04-10T03:12:08.494Z,5.16
2023-04-10T03:14:41.912Z,5.50
2023-04-10T03:17:15.322Z,5.44
2023-04-10T03:19:49.743Z,6.04
2023-04-10T03:22:23.124Z,5.77
2023-04-10T03:24:56.957Z,5.73
2023-04-10T03:27:34.885Z,5.41
2023-04-10T03:30:08.882Z,5.30
2023-04-10T03:32:43.067Z,5.47
2023-04-10T03:35:17.671Z,5.33
2023-04-10T03:37:50.670Z,5.54
2023-04-10T03:40:23.897Z,5.87
2023-04-10T03:43:04.379Z,5.64
2023-04-10T03:45:45.007Z,5.58
2023-04-10T03:48:18.059Z,5.52
2023-04-10T03:50:52.463Z,5.67
2023-04-10T03:53:25.675Z,5.92
2023-04-10T03:55:58.697Z,5.50
2023-04-10T03:58:31.868Z,5.92
2023-04-10T04:01:06.616Z,5.60
2023-04-10T04:03:39.910Z,5.81
2023-04-10T04:06:14.405Z,5.84
2023-04-10T04:08:47.493Z,5.69
2023-04-10T04:11:20.434Z,5.39
2023-04-10T04:13:54.267Z,5.00
2023-04-10T04:16:27.988Z,5.00
2023-04-10T04:19:00.956Z,4.95
2023-04-10T04:21:35.889Z,4.77
2023-04-10T04:24:19.205Z,4.74
2023-04-10T04:26:56.524Z,4.78
2023-04-10T04:29:29.771Z,5.37
2023-04-10T04:32:02.670Z,4.89
2023-04-10T04:34:35.913Z,4.68
2023-04-10T04:37:10.337Z,4.83
2023-04-10T04:39:43.635Z,4.87
2023-04-10T04:42:16.823Z,4.63
2023-04-10T04:44:50.614Z,4.88
2023-04-10T04:47:24.415Z,4.90
2023-04-10T04:49:57.447Z,4.80
2023-04-10T04:52:41.730Z,4.67
2023-04-10T04:55:15.501Z,4.78
2023-04-10T04:57:48.727Z,4.98
2023-04-10T05:00:21.735Z,5.03
2023-04-10T05:02:54.773Z,5.23
2023-04-10T05:05:28.060Z,5.29
2023-04-10T05:08:02.616Z,5.39
2023-04-10T05:10:35.812Z,5.70
2023-04-10T05:13:09.344Z,5.87
2023-04-10T05:15:43.033Z,6.04
2023-04-10T05:18:19.831Z,6.84
2023-04-10T05:20:53.227Z,6.16
2023-04-10T05:23:28.064Z,6.01
2023-04-10T05:26:01.219Z,6.45
2023-04-10T05:28:34.153Z,6.50
2023-04-10T05:31:07.585Z,6.30
2023-04-10T05:33:40.864Z,6.41
2023-04-10T05:36:14.417Z,6.67
2023-04-10T05:38:48.852Z,6.72
2023-04-10T05:41:21.942Z,6.93
2023-04-10T05:43:55.188Z,7.00
2023-04-10T05:46:28.239Z,7.19
2023-04-10T05:49:01.384Z,7.11
2023-04-10T05:51:34.869Z,7.23
2023-04-10T05:54:09.557Z,7.58
2023-04-10T05:56:42.585Z,7.43
2023-04-10T05:59:15.539Z,7.48
2023-04-10T06:01:48.644Z,7.55
2023-04-10T06:04:22.662Z,7.70
2023-04-10T06:06:56.473Z,7.82
2023-04-10T06:09:31.020Z,8.21
2023-04-10T06:12:04.569Z,7.95
2023-04-10T06:14:39.483Z,8.12
2023-04-10T06:17:12.423Z,8.10
2023-04-10T06:19:45.612Z,8.09
2023-04-10T06:22:21.398Z,8.30
2023-04-10T06:24:55.887Z,8.43
2023-04-10T06:27:30.404Z,8.41
2023-04-10T06:30:03.465Z,8.18
2023-04-10T06:32:36.745Z,8.26
2023-04-10T06:35:10.514Z,8.36
2023-04-10T06:37:43.648Z,8.44
2023-04-10T06:40:17.979Z,8.44
2023-04-10T06:42:51.046Z,8.57
2023-04-10T06:45:24.314Z,8.58
2023-04-10T06:47:57.351Z,8.71
2023-04-10T06:50:33.268Z,8.88
2023-04-10T06:53:06.545Z,9.34
2023-04-10T06:55:40.996Z,9.38
2023-04-10T06:58:14.111Z,9.17
2023-04-10T07:00:47.265Z,9.32
2023-04-10T07:03:20.491Z,9.27
2023-04-10T07:05:53.908Z,9.33
2023-04-10T07:08:26.937Z,9.35
2023-04-10T07:11:01.523Z,9.42
2023-04-10T07:13:35.698Z,9.37
2023-04-10T07:16:09.830Z,9.40
2023-04-10T07:18:44.262Z,9.63
2023-04-10T07:21:18.187Z,9.66
2023-04-10T07:23:51.668Z,9.52
2023-04-10T07:26:26.629Z,9.36
2023-04-10T07:28:59.931Z,9.07
2023-04-10T07:31:33.190Z,9.07
2023-04-10T07:34:06.486Z,9.22
2023-04-10T07:36:39.627Z,8.89
2023-04-10T07:39:12.776Z,8.93
2023-04-10T07:41:47.263Z,9.01
2023-04-10T07:44:20.337Z,9.04
2023-04-10T07:46:53.949Z,9.13
2023-04-10T07:49:27.270Z,8.98
2023-04-10T07:52:10.522Z,9.15
2023-04-10T07:54:43.742Z,9.15
2023-04-10T07:57:18.113Z,9.30
2023-04-10T07:59:51.602Z,9.99
2023-04-10T08:02:24.962Z,9.96
2023-04-10T08:05:08.585Z,9.47
2023-04-10T08:07:41.863Z,9.30
2023-04-10T08:10:15.539Z,9.34
2023-04-10T08:12:50.777Z,9.38
2023-04-10T08:15:24.054Z,9.30
2023-04-10T08:17:57.105Z,9.22
2023-04-10T08:20:30.327Z,9.12
2023-04-10T08:23:19.220Z,9.17
2023-04-10T08:25:53.696Z,9.12
2023-04-10T08:28:28.114Z,9.13
2023-04-10T08:31:01.508Z,9.18
2023-04-10T08:33:34.720Z,9.17
2023-04-10T08:36:08.351Z,9.02
2023-04-10T08:38:41.421Z,8.85
2023-04-10T08:41:15.579Z,8.90
2023-04-10T08:43:50.928Z,8.81
2023-04-10T08:46:24.753Z,8.81
2023-04-10T08:49:02.545Z,8.83
2023-04-10T08:51:38.546Z,8.73
2023-04-10T08:54:13.819Z,8.71
2023-04-10T08:56:51.380Z,8.86
2023-04-10T08:59:25.999Z,9.01
2023-04-10T09:01:59.934Z,8.94
2023-04-10T09:04:33.672Z,9.05
2023-04-10T09:07:06.721Z,9.05
2023-04-10T09:09:39.574Z,8.96
2023-04-10T09:12:15.586Z,9.20
2023-04-10T09:14:53.543Z,8.95
2023-04-10T09:17:26.610Z,9.01
2023-04-10T09:19:59.564Z,9.02
2023-04-10T09:22:33.742Z,8.92
2023-04-10T09:25:07.232Z,8.57
2023-04-10T09:27:42.197Z,8.84
2023-04-10T09:30:33.490Z,8.79
2023-04-10T09:33:21.366Z,8.84
2023-04-10T09:35:54.654Z,9.11
2023-04-10T09:38:27.613Z,9.16
2023-04-10T09:41:07.790Z,8.99
2023-04-10T09:43:43.517Z,9.15
2023-04-10T09:46:27.095Z,8.99
2023-04-10T09:49:01.470Z,9.24
2023-04-10T09:51:35.577Z,9.15
2023-04-10T09:54:09.028Z,9.34
2023-04-10T09:56:42.973Z,9.22
2023-04-10T09:59:17.526Z,9.38
2023-04-10T10:01:52.298Z,9.40
2023-04-10T10:04:26.037Z,9.63
2023-04-10T10:06:59.494Z,9.35
2023-04-10T10:09:40.272Z,9.36
2023-04-10T10:12:17.976Z,9.42
2023-04-10T10:14:55.403Z,9.31
2023-04-10T10:17:33.710Z,9.52
2023-04-10T10:20:09.828Z,9.62
2023-04-10T10:22:43.417Z,9.72
2023-04-10T10:25:17.313Z,9.61
2023-04-10T10:27:52.554Z,9.77
2023-04-10T10:30:30.008Z,9.63
2023-04-10T10:33:07.129Z,9.64
2023-04-10T10:35:40.891Z,9.51
2023-04-10T10:38:14.867Z,9.67
2023-04-10T10:40:53.213Z,9.79
2023-04-10T10:43:28.993Z,9.76
2023-04-10T10:46:03.943Z,9.52
2023-04-10T10:48:38.476Z,9.69
2023-04-10T10:51:12.184Z,9.79
2023-04-10T10:53:45.682Z,9.88
2023-04-10T10:56:35.053Z,10.11
2023-04-10T10:59:08.753Z,9.98
2023-04-10T11:02:02.478Z,10.06
2023-04-10T11:04:46.803Z,10.06
2023-04-10T11:07:20.498Z,10.23
2023-04-10T11:09:54.828Z,10.18
2023-04-10T11:12:28.452Z,10.17
2023-04-10T11:15:03.267Z,10.35
2023-04-10T11:17:54.404Z,10.45
2023-04-10T11:20:29.181Z,10.43
2023-04-10T11:23:09.489Z,10.20
2023-04-10T11:25:52.546Z,10.45
2023-04-10T11:28:35.736Z,10.55
2023-04-10T11:31:16.078Z,10.56
2023-04-10T11:33:49.631Z,10.53
2023-04-10T11:36:24.658Z,10.52
2023-04-10T11:38:59.248Z,10.63
2023-04-10T11:41:33.281Z,10.53
2023-04-10T11:44:07.990Z,10.46
2023-04-10T11:46:41.573Z,10.44
2023-04-10T11:49:18.802Z,10.51
2023-04-10T11:51:53.793Z,10.38
2023-04-10T11:54:28.771Z,10.47
2023-04-10T11:57:03.397Z,10.52
2023-04-10T11:59:36.947Z,10.57
2023-04-10T12:02:11.118Z,10.70
2023-04-10T12:04:45.321Z,10.32
2023-04-10T12:07:20.227Z,10.37
2023-04-10T12:09:57.203Z,10.38
2023-04-10T12:12:36.149Z,10.39
2023-04-10T12:15:28.430Z,10.47
2023-04-10T12:18:02.572Z,10.45
2023-04-10T12:20:35.759Z,10.44
2023-04-10T12:23:10.621Z,10.28
2023-04-10T12:25:43.839Z,10.26
2023-04-10T12:28:20.227Z,10.26
2023-04-10T12:30:54.040Z,10.26
2023-04-10T12:33:27.152Z,10.26
2023-04-10T12:36:00.313Z,10.18
2023-04-10T12:38:38.606Z,10.26
2023-04-10T12:41:12.808Z,10.26
2023-04-10T12:43:45.781Z,10.29
2023-04-10T12:46:25.960Z,10.27
2023-04-10T12:49:10.021Z,10.24
2023-04-10T12:51:43.699Z,10.29
2023-04-10T12:54:32.018Z,10.27
2023-04-10T12:57:05.444Z,10.33
2023-04-10T12:59:39.061Z,10.28
2023-04-10T13:02:12.187Z,10.29
2023-04-10T13:04:45.373Z,10.38
2023-04-10T13:07:18.400Z,10.36
2023-04-10T13:09:53.082Z,10.45
2023-04-10T13:12:38.594Z,10.48
2023-04-10T13:15:12.242Z,10.34
2023-04-10T13:17:45.862Z,10.38
2023-04-10T13:20:19.316Z,10.42
2023-04-10T13:22:52.582Z,10.40
2023-04-10T13:25:27.731Z,10.39
2023-04-10T13:28:01.221Z,10.45
2023-04-10T13:30:34.380Z,10.42
2023-04-10T13:33:07.913Z,10.43
2023-04-10T13:35:41.313Z,10.39
2023-04-10T13:38:14.388Z,10.21
2023-04-10T13:40:49.031Z,10.31
2023-04-10T13:43:22.087Z,10.11
2023-04-10T13:45:54.939Z,9.86
2023-04-10T13:48:37.426Z,9.84
2023-04-10T13:51:12.864Z,9.74
2023-04-10T13:53:45.837Z,9.64
2023-04-10T13:56:20.556Z,9.68
2023-04-10T13:58:54.008Z,9.55
2023-04-10T14:01:28.077Z,9.43
2023-04-10T14:04:01.674Z,9.51
2023-04-10T14:06:35.357Z,9.69
2023-04-10T14:09:09.252Z,9.74
2023-04-10T14:11:43.830Z,9.84
2023-04-10T14:14:17.409Z,9.75
2023-04-10T14:16:50.813Z,9.90
2023-04-10T14:19:24.088Z,9.81
2023-04-10T14:21:57.039Z,9.75
2023-04-10T14:24:30.390Z,9.74
2023-04-10T14:27:05.237Z,9.62
2023-04-10T14:29:44.676Z,9.59
2023-04-10T14:32:24.021Z,9.41
2023-04-10T14:34:57.242Z,9.76
2023-04-10T14:37:30.367Z,9.67
2023-04-10T14:40:04.969Z,9.63
2023-04-10T14:42:39.622Z,9.64
2023-04-10T14:45:12.701Z,9.88
2023-04-10T14:47:45.719Z,9.75
2023-04-10T14:50:18.996Z,9.82
2023-04-10T14:52:52.136Z,9.80
2023-04-10T14:55:25.437Z,9.65
2023-04-10T14:58:00.192Z,9.76
2023-04-10T15:00:33.832Z,9.69
2023-04-10T15:03:08.721Z,9.64
2023-04-10T15:05:41.871Z,9.63
2023-04-10T15:08:14.802Z,9.69
2023-04-10T15:10:50.400Z,9.60
2023-04-10T15:13:26.213Z,9.59
2023-04-10T15:16:01.121Z,9.45
2023-04-10T15:18:34.511Z,9.46
2023-04-10T15:21:07.516Z,9.37
2023-04-10T15:23:40.818Z,9.44
2023-04-10T15:26:15.046Z,9.64
2023-04-10T15:28:49.466Z,9.47
2023-04-10T15:31:23.320Z,9.47
2023-04-10T15:34:03.825Z,9.41
2023-04-10T15:36:37.329Z,9.29
2023-04-10T15:39:11.383Z,9.44
2023-04-10T15:41:44.843Z,9.35
2023-04-10T15:44:19.589Z,9.21
2023-04-10T15:46:54.243Z,9.28
2023-04-10T15:49:37.597Z,9.32
2023-04-10T15:52:11.543Z,9.38
2023-04-10T15:54:45.146Z,9.41
2023-04-10T15:57:18.365Z,9.40
2023-04-10T15:59:56.243Z,9.33
2023-04-10T16:02:29.553Z,9.14
2023-04-10T16:05:03.126Z,9.04
2023-04-10T16:07:39.165Z,9.19
2023-04-10T16:10:13.470Z,9.28
2023-04-10T16:12:47.634Z,9.14
2023-04-10T16:15:23.510Z,9.10
2023-04-10T16:17:57.899Z,8.99
2023-04-10T16:20:31.276Z,9.06
2023-04-10T16:23:04.478Z,9.09
2023-04-10T16:25:37.872Z,9.02
2023-04-10T16:28:11.395Z,8.93
2023-04-10T16:30:45.769Z,8.93
2023-04-10T16:33:18.680Z,8.83
2023-04-10T16:35:51.865Z,8.83
2023-04-10T16:38:25.320Z,8.78
2023-04-10T16:40:58.829Z,8.84
2023-04-10T16:43:32.426Z,8.94
2023-04-10T16:46:07.434Z,8.94
2023-04-10T16:48:40.803Z,8.80
2023-04-10T16:51:16.220Z,8.80
2023-04-10T16:53:49.206Z,8.75
2023-04-10T16:56:23.218Z,8.90
2023-04-10T16:58:57.479Z,8.89
2023-04-10T17:01:34.316Z,8.80
2023-04-10T17:04:08.114Z,8.74
2023-04-10T17:06:41.312Z,8.72
2023-04-10T17:09:14.547Z,8.64
2023-04-10T17:11:57.869Z,8.63
2023-04-10T17:14:31.799Z,8.59
2023-04-10T17:17:06.678Z,8.66
2023-04-10T17:19:39.913Z,8.63
2023-04-10T17:22:16.568Z,8.63
2023-04-10T17:24:49.701Z,8.61
2023-04-10T17:27:22.703Z,8.51
2023-04-10T17:29:55.826Z,8.43
2023-04-10T17:32:30.228Z,8.50
2023-04-10T17:35:03.917Z,8.41
2023-04-10T17:37:37.264Z,8.57
2023-04-10T17:40:11.870Z,8.59
2023-04-10T17:42:45.572Z,8.52
2023-04-10T17:45:28.419Z,8.55
2023-04-10T17:48:03.528Z,8.64
2023-04-10T17:50:36.893Z,8.63
2023-04-10T17:53:09.894Z,8.46
2023-04-10T17:55:43.234Z,8.45
2023-04-10T17:58:16.312Z,8.34
2023-04-10T18:00:49.624Z,8.56
2023-04-10T18:03:24.644Z,8.56
2023-04-10T18:05:57.965Z,8.53
2023-04-10T18:08:31.183Z,8.34
2023-04-10T18:11:04.233Z,8.47
2023-04-10T18:13:37.515Z,9.08
2023-04-10T18:16:11.996Z,8.43
2023-04-10T18:18:46.653Z,8.46
2023-04-10T18:21:19.780Z,8.31
2023-04-10T18:23:52.992Z,8.37
2023-04-10T18:26:26.188Z,8.21
2023-04-10T18:28:59.893Z,8.39
2023-04-10T18:31:33.514Z,8.38
2023-04-10T18:34:08.925Z,8.23
2023-04-10T18:36:42.348Z,8.19
2023-04-10T18:39:15.483Z,8.28
2023-04-10T18:41:48.532Z,8.39
2023-04-10T18:44:21.799Z,8.24
2023-04-10T18:47:03.809Z,8.26
2023-04-10T18:49:39.559Z,8.25
2023-04-10T18:52:12.975Z,8.24
2023-04-10T18:54:46.744Z,8.31
2023-04-10T18:57:20.065Z,8.27
2023-04-10T18:59:53.551Z,8.14
2023-04-10T19:02:28.684Z,8.08
2023-04-10T19:05:03.614Z,8.04
2023-04-10T19:07:36.631Z,8.07
2023-04-10T19:10:10.051Z,8.08
2023-04-10T19:12:44.061Z,8.06
2023-04-10T19:15:18.019Z,8.21
2023-04-10T19:17:53.301Z,8.05
2023-04-10T19:20:50.232Z,7.99
2023-04-10T19:23:22.483Z,8.04
2023-04-10T19:25:55.882Z,8.09
2023-04-10T19:28:30.189Z,8.03
2023-04-10T19:31:03.378Z,7.92
2023-04-10T19:33:36.748Z,7.99
2023-04-10T19:36:11.734Z,7.92
2023-04-10T19:38:48.952Z,7.96
2023-04-10T19:41:22.263Z,8.02
2023-04-10T19:43:56.187Z,7.90
2023-04-10T19:46:30.088Z,7.89
2023-04-10T19:49:03.613Z,7.96
2023-04-10T19:51:38.276Z,7.94
2023-04-10T19:54:11.561Z,7.95
2023-04-10T19:56:44.805Z,7.90
2023-04-10T19:59:18.015Z,7.75
2023-04-10T20:01:52.145Z,7.82
2023-04-10T20:04:25.698Z,7.73
2023-04-10T20:07:00.524Z,7.77
2023-04-10T20:09:34.211Z,7.75
2023-04-10T20:12:08.584Z,7.80
2023-04-10T20:14:43.403Z,7.76
2023-04-10T20:17:17.064Z,7.74
2023-04-10T20:19:50.149Z,7.75
2023-04-10T20:22:24.595Z,7.87
2023-04-10T20:24:57.637Z,7.88
2023-04-10T20:27:30.737Z,7.84
2023-04-10T20:30:04.256Z,7.87
2023-04-10T20:32:39.810Z,7.78
2023-04-10T20:35:12.921Z,7.77
2023-04-10T20:37:47.153Z,7.80
2023-04-10T20:40:20.393Z,7.77
2023-04-10T20:42:54.065Z,7.73
2023-04-10T20:45:27.473Z,7.77
2023-04-10T20:48:00.912Z,7.81
2023-04-10T20:50:33.876Z,7.79
2023-04-10T20:53:08.249Z,7.85
2023-04-10T20:55:41.624Z,7.83
2023-04-10T20:58:15.105Z,7.80
2023-04-10T21:00:48.639Z,7.68
2023-04-10T21:03:22.009Z,7.74
2023-04-10T21:05:55.371Z,7.71
2023-04-10T21:08:30.169Z,7.62
2023-04-10T21:11:03.276Z,7.63
2023-04-10T21:13:38.535Z,7.59
2023-04-10T21:18:45.472Z,7.79
2023-04-10T21:21:18.519Z,7.59
2023-04-10T21:23:52.858Z,7.76
2023-04-10T21:26:25.874Z,7.78
2023-04-10T21:28:59.165Z,7.75
2023-04-10T21:31:32.406Z,7.75
2023-04-10T21:34:05.852Z,7.50
2023-04-10T21:36:39.514Z,7.55
2023-04-10T21:39:13.883Z,7.60
2023-04-10T21:41:47.149Z,7.66
2023-04-10T21:44:21.132Z,7.57
2023-04-10T21:46:54.394Z,7.74
2023-04-10T21:49:27.406Z,7.67
2023-04-10T21:52:00.731Z,7.69
2023-04-10T21:54:35.481Z,7.71
2023-04-10T21:57:08.850Z,7.71
2023-04-10T21:59:42.052Z,7.60
2023-04-10T22:02:15.022Z,7.56
2023-04-10T22:04:54.468Z,7.61
2023-04-10T22:07:27.856Z,7.64
2023-04-10T22:10:02.523Z,7.65
2023-04-10T22:12:36.634Z,7.58
2023-04-10T22:15:10.799Z,7.59
2023-04-10T22:17:44.405Z,7.54
2023-04-10T22:20:17.450Z,7.53
2023-04-10T22:22:50.736Z,7.56
2023-04-10T22:25:25.609Z,7.60
2023-04-10T22:27:58.875Z,7.56
2023-04-10T22:30:31.793Z,7.45
2023-04-10T22:33:04.943Z,7.53
2023-04-10T22:35:38.171Z,7.69
2023-04-10T22:38:11.260Z,7.54
2023-04-10T22:40:45.842Z,7.57
2023-04-10T22:43:19.297Z,7.48
2023-04-10T22:45:52.625Z,7.55
2023-04-10T22:48:25.744Z,7.42
2023-04-10T22:50:58.598Z,7.52
2023-04-10T22:53:31.830Z,7.56
2023-04-10T22:56:06.854Z,7.47
2023-04-10T22:58:40.530Z,7.46
2023-04-10T23:01:13.510Z,7.45
2023-04-10T23:03:46.416Z,7.44
2023-04-10T23:06:19.616Z,7.46
2023-04-10T23:08:52.973Z,7.36
2023-04-10T23:11:27.703Z,7.42
2023-04-10T23:14:01.468Z,7.43
2023-04-10T23:16:34.878Z,7.50
2023-04-10T23:19:08.106Z,7.45
2023-04-10T23:21:41.012Z,7.55
2023-04-10T23:24:14.169Z,7.56
2023-04-10T23:26:48.814Z,7.55
2023-04-10T23:29:22.003Z,7.48
2023-04-10T23:31:54.880Z,7.60
2023-04-10T23:34:27.901Z,7.52
2023-04-10T23:37:01.181Z,7.42
2023-04-10T23:39:34.200Z,7.46
2023-04-10T23:42:08.558Z,7.49
2023-04-10T23:44:41.764Z,7.38
2023-04-10T23:47:14.824Z,7.31
2023-04-10T23:49:47.933Z,7.30
2023-04-10T23:52:20.952Z,7.38
2023-04-10T23:54:56.283Z,7.35
2023-04-10T23:57:30.823Z,7.27
